Time;durP1;ratioP1;P1;durP2;ratioP2;P2;SDS_P1;SDS_P2;PMS_P1;PMS_P2;Temp;Humidity;BMP_temperature;BMP_pressure;BME280_temperature;BME280_humidity;BME280_pressure;Samples;Min_cycle;Max_cycle;Signal;HPM_P1;HPM_P2
2022/08/23 00:01:34;;;;;;;4.80;4.10;;;;;;;15.67;100.00;96288.59;108480;1268;22555;-81
2022/08/23 00:04:05;;;;;;;5.70;4.00;;;;;;;15.69;100.00;96287.54;108559;1268;22474;-82
2022/08/23 00:06:34;;;;;;;4.10;3.70;;;;;;;15.75;100.00;96285.76;108549;1268;25363;-82
2022/08/23 00:09:05;;;;;;;5.90;4.60;;;;;;;15.79;100.00;96289.81;108473;1268;34717;-80
2022/08/23 00:11:37;;;;;;;4.30;3.90;;;;;;;15.86;100.00;96288.52;108579;1266;23317;-82
2022/08/23 00:14:10;;;;;;;5.10;4.00;;;;;;;15.90;100.00;96292.45;108415;1268;24223;-82
2022/08/23 00:16:41;;;;;;;5.40;4.50;;;;;;;15.90;100.00;96291.76;108569;1267;25293;-82
2022/08/23 00:19:12;;;;;;;4.90;3.70;;;;;;;15.88;100.00;96294.33;108422;1267;40707;-82
2022/08/23 00:21:42;;;;;;;4.80;3.60;;;;;;;15.89;100.00;96301.31;108547;1267;22560;-82
2022/08/23 00:24:12;;;;;;;4.60;3.60;;;;;;;15.93;100.00;96308.08;108407;1268;22541;-82
2022/08/23 00:26:53;;;;;;;5.10;3.90;;;;;;;15.93;100.00;96309.36;108557;1267;23097;-82
2022/08/23 00:29:25;;;;;;;5.40;4.00;;;;;;;15.88;100.00;96312.64;108443;1267;37127;-82
2022/08/23 00:31:54;;;;;;;6.00;3.90;;;;;;;15.92;100.00;96313.27;108569;1268;23841;-81
2022/08/23 00:34:22;;;;;;;5.00;3.70;;;;;;;15.96;100.00;96309.04;108536;1268;22620;-82
2022/08/23 00:36:52;;;;;;;5.50;3.50;;;;;;;16.00;100.00;96310.72;108557;1268;24205;-82
2022/08/23 00:39:21;;;;;;;7.10;4.40;;;;;;;16.07;100.00;96316.17;108484;1268;32301;-81
2022/08/23 00:41:50;;;;;;;4.70;4.00;;;;;;;16.10;100.00;96317.84;108518;1268;22480;-81
2022/08/23 00:50:08;;;;;;;6.30;4.60;;;;;;;15.96;100.00;96325.37;108522;1268;25722;-81
2022/08/23 00:52:47;;;;;;;7.60;5.10;;;;;;;15.87;100.00;96320.20;108498;1268;24020;-79
2022/08/23 00:55:18;;;;;;;6.80;4.30;;;;;;;15.86;100.00;96316.70;108532;1268;24248;-83
2022/08/23 00:57:47;;;;;;;4.80;3.40;;;;;;;15.92;100.00;96310.38;108454;1268;52186;-83
2022/08/23 01:00:17;;;;;;;6.00;4.10;;;;;;;15.91;100.00;96311.35;108578;1267;25410;-83
2022/08/23 01:02:48;;;;;;;4.20;3.50;;;;;;;15.88;100.00;96307.26;108496;1267;23921;-82
2022/08/23 01:05:18;;;;;;;4.80;3.50;;;;;;;15.87;100.00;96303.08;108538;1268;25321;-82
2022/08/23 01:07:51;;;;;;;6.30;4.30;;;;;;;15.82;100.00;96302.88;108511;1268;47610;-82
2022/08/23 01:10:26;;;;;;;6.60;3.80;;;;;;;15.88;100.00;96303.02;108611;1268;22666;-82
2022/08/23 01:13:02;;;;;;;4.60;4.10;;;;;;;15.93;100.00;96308.39;108550;1268;25389;-82
2022/08/23 01:15:35;;;;;;;6.00;3.90;;;;;;;15.81;100.00;96301.00;108540;1268;22944;-82
2022/08/23 01:18:07;;;;;;;4.70;4.10;;;;;;;15.67;100.00;96301.10;108441;1268;28255;-82
2022/08/23 01:20:42;;;;;;;4.40;3.80;;;;;;;15.56;100.00;96301.50;108546;1268;22484;-82
2022/08/23 01:23:31;;;;;;;6.10;4.00;;;;;;;15.48;100.00;96306.91;108573;1268;22586;-82
2022/08/23 01:26:03;;;;;;;5.40;4.00;;;;;;;15.41;100.00;96304.46;108445;1267;23332;-82
2022/08/23 01:28:32;;;;;;;5.50;4.30;;;;;;;15.37;100.00;96299.73;108455;1268;31349;-82
2022/08/23 01:31:01;;;;;;;6.60;4.80;;;;;;;15.41;100.00;96303.09;108477;1268;22683;-82
2022/08/23 01:33:31;;;;;;;9.00;4.70;;;;;;;15.48;100.00;96304.46;108544;1268;22548;-82
2022/08/23 01:36:01;;;;;;;4.50;4.10;;;;;;;15.53;100.00;96306.57;108534;1268;22556;-82
2022/08/23 01:38:29;;;;;;;5.50;4.40;;;;;;;15.58;100.00;96314.35;108463;1268;36733;-83
2022/08/23 01:40:59;;;;;;;6.50;4.40;;;;;;;15.60;100.00;96316.53;108548;1269;23774;-82
2022/08/23 01:43:28;;;;;;;4.60;4.00;;;;;;;15.60;100.00;96315.84;108467;1268;23310;-83
2022/08/23 01:45:56;;;;;;;6.40;4.00;;;;;;;15.60;100.00;96314.98;108534;1268;23775;-82
2022/08/23 01:48:26;;;;;;;6.40;4.20;;;;;;;15.66;100.00;96320.00;108481;1268;35784;-82
2022/08/23 01:50:54;;;;;;;4.80;4.30;;;;;;;15.66;100.00;96318.23;108517;1268;22485;-82
2022/08/23 01:53:24;;;;;;;4.50;4.10;;;;;;;15.72;100.00;96318.56;108519;1267;24133;-83
2022/08/23 01:55:52;;;;;;;5.50;4.20;;;;;;;15.82;100.00;96320.66;108521;1268;22605;-83
2022/08/23 01:58:21;;;;;;;4.70;4.30;;;;;;;15.87;100.00;96316.57;108469;1268;37911;-82
2022/08/23 02:00:50;;;;;;;7.10;4.10;;;;;;;15.81;100.00;96315.02;108563;1268;22473;-82
2022/08/23 02:03:20;;;;;;;5.60;4.60;;;;;;;15.72;100.00;96317.58;108535;1268;23899;-82
2022/08/23 02:05:49;;;;;;;8.20;4.20;;;;;;;15.70;100.00;96320.55;108573;1268;24265;-82
2022/08/23 02:11:10;;;;;;;4.50;4.10;;;;;;;15.78;100.00;96316.92;108536;1268;22611;-82
2022/08/23 02:13:39;;;;;;;6.70;4.30;;;;;;;15.82;100.00;96318.73;108539;1268;22588;-82
2022/08/23 02:16:20;;;;;;;5.80;4.10;;;;;;;15.79;100.00;96318.66;108549;1268;24246;-82
2022/08/23 02:18:49;;;;;;;4.90;4.40;;;;;;;15.78;100.00;96319.77;108387;1268;24609;-82
2022/08/23 02:21:18;;;;;;;4.80;4.20;;;;;;;15.81;100.00;96318.71;108566;1268;23318;-82
2022/08/23 02:23:50;;;;;;;7.90;4.60;;;;;;;15.83;100.00;96320.23;108567;1268;24029;-81
2022/08/23 02:26:22;;;;;;;8.00;4.40;;;;;;;15.85;100.00;96315.23;108583;1268;22536;-83
2022/08/23 02:28:53;;;;;;;4.50;3.90;;;;;;;15.87;100.00;96317.52;108482;1268;34248;-82
2022/08/23 02:31:22;;;;;;;5.30;3.70;;;;;;;15.88;100.00;96318.98;108587;1268;24317;-82
2022/08/23 02:33:53;;;;;;;5.50;3.70;;;;;;;15.89;100.00;96322.00;108495;1268;24331;-82
2022/08/23 02:36:23;;;;;;;5.00;4.00;;;;;;;15.86;100.00;96321.20;108574;1268;22555;-83
2022/08/23 02:38:52;;;;;;;5.20;4.40;;;;;;;15.81;100.00;96318.55;108552;1268;24999;-83
2022/08/23 02:41:22;;;;;;;4.40;3.70;;;;;;;15.76;100.00;96316.73;108472;1268;22739;-84
2022/08/23 02:43:53;;;;;;;4.70;4.30;;;;;;;15.71;100.00;96321.27;108582;1268;24399;-83
2022/08/23 02:46:22;;;;;;;15.80;4.90;;;;;;;15.72;100.00;96328.13;108444;1268;22485;-83
2022/08/23 02:48:51;;;;;;;10.30;4.30;;;;;;;15.71;100.00;96336.08;108497;1267;30490;-82
2022/08/23 02:51:25;;;;;;;4.50;4.10;;;;;;;15.66;100.00;96336.48;108582;1268;22638;-82
2022/08/23 02:53:54;;;;;;;4.20;3.90;;;;;;;15.64;100.00;96335.86;108570;1268;22838;-82
2022/08/23 02:56:24;;;;;;;5.00;3.90;;;;;;;15.66;100.00;96329.09;108458;1268;22769;-83
2022/08/23 02:58:53;;;;;;;5.60;4.70;;;;;;;15.70;100.00;96327.34;108492;1268;48579;-81
2022/08/23 03:01:26;;;;;;;7.00;4.50;;;;;;;15.76;100.00;96327.11;108486;1268;23848;-82
2022/08/23 03:03:55;;;;;;;6.90;4.80;;;;;;;15.81;100.00;96331.23;108577;1268;22474;-83
2022/08/23 03:06:27;;;;;;;9.00;5.30;;;;;;;15.81;100.00;96333.90;108589;1268;22552;-81
2022/08/23 03:08:57;;;;;;;6.00;4.30;;;;;;;15.78;100.00;96336.44;108496;1268;54056;-81
2022/08/23 03:11:26;;;;;;;5.00;4.50;;;;;;;15.74;100.00;96339.71;108362;1268;22581;-81
2022/08/23 03:13:56;;;;;;;4.40;4.00;;;;;;;15.74;100.00;96341.70;108577;1268;22583;-81
2022/08/23 03:16:26;;;;;;;6.80;5.10;;;;;;;15.69;100.00;96341.90;108551;1268;22477;-81
2022/08/23 03:18:55;;;;;;;6.10;4.60;;;;;;;15.66;100.00;96347.33;108528;1268;34975;-81
2022/08/23 03:21:25;;;;;;;4.80;4.00;;;;;;;15.60;100.00;96346.30;108557;1268;22526;-81
2022/08/23 03:23:55;;;;;;;6.00;5.30;;;;;;;15.57;100.00;96346.69;108495;1268;24363;-81
2022/08/23 03:26:26;;;;;;;4.70;4.20;;;;;;;15.54;100.00;96347.93;108457;1268;23305;-81
2022/08/23 03:28:55;;;;;;;5.30;4.80;;;;;;;15.55;100.00;96345.82;108453;1268;42052;-82
2022/08/23 03:31:25;;;;;;;7.30;5.80;;;;;;;15.56;100.00;96344.56;108573;1268;23344;-82
2022/08/23 03:33:54;;;;;;;5.60;5.00;;;;;;;15.52;100.00;96342.59;108588;1268;23855;-81
2022/08/23 03:36:23;;;;;;;7.60;5.60;;;;;;;15.49;100.00;96345.65;108573;1268;24209;-82
2022/08/23 03:38:52;;;;;;;6.60;5.70;;;;;;;15.48;100.00;96343.15;108482;1268;35267;-82
2022/08/23 03:41:21;;;;;;;6.60;5.90;;;;;;;15.43;100.00;96341.83;108581;1268;22687;-82
2022/08/23 03:43:50;;;;;;;6.30;5.10;;;;;;;15.39;100.00;96343.10;108446;1268;23708;-82
2022/08/23 03:46:22;;;;;;;7.70;5.90;;;;;;;15.39;100.00;96353.06;108608;1268;22554;-82
2022/08/23 03:48:54;;;;;;;8.00;6.50;;;;;;;15.37;100.00;96358.82;108454;1268;27928;-81
2022/08/23 03:51:25;;;;;;;8.40;6.10;;;;;;;15.36;100.00;96361.52;108590;1267;22584;-81
2022/08/23 03:53:57;;;;;;;7.50;6.20;;;;;;;15.35;100.00;96367.43;108590;1268;22541;-82
2022/08/23 03:56:29;;;;;;;9.10;6.20;;;;;;;15.34;100.00;96369.05;108531;1268;25537;-82
2022/08/23 03:59:00;;;;;;;9.10;6.90;;;;;;;15.35;100.00;96372.45;108525;1268;25925;-82
2022/08/23 04:01:29;;;;;;;8.60;7.10;;;;;;;15.36;100.00;96371.05;108479;1268;22471;-84
2022/08/23 04:03:58;;;;;;;8.00;6.50;;;;;;;15.35;100.00;96371.92;108538;1268;22604;-83
2022/08/23 04:06:31;;;;;;;9.10;7.40;;;;;;;15.36;100.00;96371.14;108553;1268;23236;-84
2022/08/23 04:09:00;;;;;;;8.80;7.00;;;;;;;15.39;100.00;96374.84;108432;1268;37637;-82
2022/08/23 04:11:30;;;;;;;8.40;7.00;;;;;;;15.42;100.00;96373.35;108463;1268;22554;-82
2022/08/23 04:14:02;;;;;;;8.80;6.80;;;;;;;15.46;100.00;96362.81;108559;1268;25228;-83
2022/08/23 04:16:36;;;;;;;10.20;7.70;;;;;;;15.47;100.00;96364.39;108575;1268;24226;-82
2022/08/23 04:19:06;;;;;;;9.10;7.30;;;;;;;15.52;100.00;96366.77;108488;1267;36518;-82
2022/08/23 04:21:37;;;;;;;9.40;7.40;;;;;;;15.53;100.00;96365.89;108485;1267;22760;-82
2022/08/23 04:24:07;;;;;;;9.40;7.40;;;;;;;15.53;100.00;96366.13;108546;1268;24177;-82
2022/08/23 04:26:36;;;;;;;11.60;8.20;;;;;;;15.55;100.00;96366.76;108610;1268;22650;-82
2022/08/23 04:29:06;;;;;;;8.80;7.50;;;;;;;15.57;100.00;96367.06;108495;1267;37531;-81
2022/08/23 04:31:34;;;;;;;10.60;8.20;;;;;;;15.61;100.00;96372.31;108561;1268;22486;-82
2022/08/23 04:34:04;;;;;;;11.40;8.10;;;;;;;15.62;100.00;96378.23;108419;1267;22606;-82
2022/08/23 04:36:37;;;;;;;10.20;8.10;;;;;;;15.61;100.00;96378.56;108571;1268;23841;-81
2022/08/23 04:39:07;;;;;;;11.90;9.50;;;;;;;15.60;100.00;96376.73;108524;1268;29180;-81
2022/08/23 04:44:23;;;;;;;10.70;7.90;;;;;;;15.57;100.00;96383.76;108432;1268;22546;-81
2022/08/23 04:46:52;;;;;;;9.90;8.00;;;;;;;15.53;100.00;96390.88;108611;1268;23279;-81
2022/08/23 04:49:22;;;;;;;11.40;8.90;;;;;;;15.54;100.00;96388.77;108424;1268;49496;-81
2022/08/23 04:51:54;;;;;;;10.40;8.60;;;;;;;15.55;100.00;96393.10;108607;1268;22594;-81
2022/08/23 04:54:23;;;;;;;10.40;8.70;;;;;;;15.55;100.00;96396.11;108575;1268;23928;-82
2022/08/23 04:56:51;;;;;;;10.80;8.80;;;;;;;15.52;100.00;96401.20;108601;1268;23371;-81
2022/08/23 04:59:23;;;;;;;10.70;8.20;;;;;;;15.52;100.00;96404.96;108389;1268;32858;-81
2022/08/23 05:01:52;;;;;;;10.10;8.20;;;;;;;15.56;100.00;96406.92;108600;1267;22569;-81
2022/08/23 05:04:22;;;;;;;10.80;8.60;;;;;;;15.59;100.00;96411.05;108577;1267;24210;-81
2022/08/23 05:06:52;;;;;;;10.00;8.10;;;;;;;15.63;100.00;96411.80;108430;1268;22579;-82
2022/08/23 05:09:23;;;;;;;10.80;9.00;;;;;;;15.66;100.00;96413.83;108535;1267;26517;-82
2022/08/23 05:11:52;;;;;;;11.70;9.60;;;;;;;15.66;100.00;96420.77;108587;1268;22534;-81
2022/08/23 05:14:21;;;;;;;13.50;10.10;;;;;;;15.68;100.00;96425.51;108583;1268;22546;-81
2022/08/23 05:16:50;;;;;;;10.80;8.90;;;;;;;15.70;100.00;96428.46;108578;1268;22644;-81
2022/08/23 05:19:18;;;;;;;10.20;8.70;;;;;;;15.74;100.00;96431.49;108528;1268;28272;-81
2022/08/23 05:21:48;;;;;;;12.40;9.00;;;;;;;15.78;100.00;96433.48;108585;1268;22592;-81
2022/08/23 05:24:17;;;;;;;12.50;9.60;;;;;;;15.83;100.00;96437.64;108584;1268;22508;-81
2022/08/23 05:26:46;;;;;;;13.30;9.90;;;;;;;15.90;100.00;96439.55;108576;1268;22574;-81
2022/08/23 05:29:16;;;;;;;8.90;7.60;;;;;;;16.03;100.00;96440.39;108513;1268;49080;-81
2022/08/23 05:31:45;;;;;;;12.00;9.30;;;;;;;16.14;100.00;96442.63;108568;1268;23784;-80
2022/08/23 05:34:14;;;;;;;9.80;8.10;;;;;;;16.24;100.00;96444.73;108570;1268;22593;-81
2022/08/23 05:36:43;;;;;;;11.90;9.10;;;;;;;16.36;100.00;96442.86;108583;1268;22726;-80
2022/08/23 05:39:12;;;;;;;12.20;8.50;;;;;;;16.53;100.00;96438.44;108510;1268;28970;-80
2022/08/23 05:41:43;;;;;;;9.50;8.20;;;;;;;16.67;100.00;96435.89;108566;1268;25383;-81
2022/08/23 05:44:13;;;;;;;8.70;7.80;;;;;;;16.81;100.00;96435.41;108565;1268;22544;-80
2022/08/23 05:46:42;;;;;;;8.70;7.80;;;;;;;16.97;100.00;96436.05;108630;1267;22638;-81
2022/08/23 05:49:11;;;;;;;8.10;6.90;;;;;;;17.19;100.00;96432.59;108527;1268;24821;-81
2022/08/23 05:51:41;;;;;;;7.50;6.70;;;;;;;17.33;100.00;96432.27;108544;1268;22480;-83
2022/08/23 05:54:10;;;;;;;8.00;6.10;;;;;;;17.43;100.00;96442.61;108576;1267;22549;-81
2022/08/23 05:56:41;;;;;;;6.30;5.60;;;;;;;17.55;100.00;96436.70;108600;1268;22586;-78
2022/08/23 05:59:14;;;;;;;7.60;6.10;;;;;;;17.77;100.00;96432.16;108557;1267;27774;-81
2022/08/23 06:01:43;;;;;;;6.00;5.10;;;;;;;18.01;100.00;96433.41;108724;1267;22605;-81
2022/08/23 06:04:15;;;;;;;9.00;4.90;;;;;;;18.26;100.00;96435.05;108673;1268;24027;-81
2022/08/23 06:06:44;;;;;;;;;;;;;;;19.06;100.00;96432.98;108703;1268;22640;-81
2022/08/23 06:09:15;;;;;;;6.20;5.60;;;;;;;19.92;100.00;96432.17;108506;1268;41141;-81
2022/08/23 06:11:46;;;;;;;6.20;5.00;;;;;;;19.96;100.00;96433.18;108673;1268;22548;-82
2022/08/23 06:14:17;;;;;;;7.20;6.40;;;;;;;19.83;100.00;96438.69;108618;1268;23400;-81
2022/08/23 06:16:48;;;;;;;8.20;6.40;;;;;;;19.55;100.00;96441.61;108652;1268;24266;-82
2022/08/23 06:19:17;;;;;;;8.20;6.60;;;;;;;19.19;100.00;96448.44;108560;1267;36023;-82
2022/08/23 06:21:47;;;;;;;8.10;6.70;;;;;;;18.97;100.00;96452.59;108621;1267;23732;-82
2022/08/23 06:24:16;;;;;;;7.90;6.90;;;;;;;18.81;100.00;96453.61;108618;1268;23881;-82
2022/08/23 06:26:45;;;;;;;6.20;5.40;;;;;;;18.72;100.00;96456.37;108383;1268;23333;-82
2022/08/23 06:29:16;;;;;;;7.60;6.70;;;;;;;18.61;100.00;96456.85;108526;1268;28341;-83
2022/08/23 06:31:47;;;;;;;9.10;7.50;;;;;;;18.48;100.00;96464.08;108632;1268;24331;-82
2022/08/23 06:34:21;;;;;;;8.10;6.70;;;;;;;18.54;100.00;96458.00;108623;1267;22534;-84
2022/08/23 06:36:52;;;;;;;7.10;6.30;;;;;;;18.89;100.00;96463.23;108424;1268;22538;-84
2022/08/23 06:39:26;;;;;;;6.70;6.00;;;;;;;19.35;100.00;96471.65;108524;1268;53357;-81
2022/08/23 06:42:00;;;;;;;8.70;6.00;;;;;;;19.71;100.00;96473.45;108497;1267;22753;-77
2022/08/23 06:44:29;;;;;;;8.10;6.50;;;;;;;20.14;100.00;96478.88;108583;1268;23841;-77
2022/08/23 06:46:59;;;;;;;6.80;5.10;;;;;;;20.98;100.00;96476.77;108571;1267;22542;-77
2022/08/23 06:49:29;;;;;;;5.50;5.00;;;;;;;22.42;100.00;96471.64;108473;1267;34304;-78
2022/08/23 06:52:00;;;;;;;5.40;4.90;;;;;;;24.43;100.00;96468.13;108642;1265;23322;-78
2022/08/23 06:54:31;;;;;;;4.20;3.80;;;;;;;27.11;96.18;96465.96;108563;1268;23128;-78
2022/08/23 06:57:01;;;;;;;4.20;3.80;;;;;;;28.73;86.84;96468.48;108433;1268;22712;-78
2022/08/23 06:59:31;;;;;;;4.60;3.40;;;;;;;28.78;79.63;96464.23;108408;1268;46329;-78
2022/08/23 07:02:00;;;;;;;;;;;;;;;28.98;78.69;96465.02;108577;1268;22572;-78
2022/08/23 07:04:31;;;;;;;3.50;3.20;;;;;;;30.08;77.35;96466.23;108583;1268;22474;-78
2022/08/23 07:07:00;;;;;;;3.50;3.20;;;;;;;31.47;74.45;96464.55;108550;1266;25393;-78
2022/08/23 07:09:30;;;;;;;3.40;3.10;;;;;;;32.13;69.55;96464.58;108481;1268;29414;-78
2022/08/23 07:12:02;;;;;;;3.50;2.90;;;;;;;32.77;63.44;96468.57;108533;1268;23726;-78
2022/08/23 07:14:32;;;;;;;4.70;3.80;;;;;;;32.61;58.15;96468.61;108514;1268;22561;-78
2022/08/23 07:17:02;;;;;;;3.90;3.30;;;;;;;32.69;55.97;96473.29;108433;1267;22605;-78
2022/08/23 07:19:34;;;;;;;3.60;3.30;;;;;;;33.62;58.70;96476.45;108340;1268;37194;-79
2022/08/23 07:22:06;;;;;;;4.20;3.30;;;;;;;35.14;57.43;96472.33;108539;1268;22762;-79
2022/08/23 07:24:35;;;;;;;3.60;3.30;;;;;;;35.65;52.44;96471.48;108548;1267;24322;-79
2022/08/23 07:27:07;;;;;;;3.60;3.30;;;;;;;35.46;50.77;96473.73;108530;1268;22559;-80
2022/08/23 07:29:38;;;;;;;4.00;3.60;;;;;;;35.55;50.14;96476.97;108418;1268;37900;-79
2022/08/23 07:32:07;;;;;;;5.10;3.70;;;;;;;34.41;48.78;96476.40;108502;1268;24262;-79
2022/08/23 07:34:37;;;;;;;4.50;4.10;;;;;;;33.01;49.48;96483.23;108554;1267;22654;-79
2022/08/23 07:37:06;;;;;;;;;;;;;;;32.91;48.12;96478.70;108551;1268;24055;-78
2022/08/23 07:39:34;;;;;;;4.40;4.00;;;;;;;32.95;48.52;96476.32;108437;1268;32713;-78
2022/08/23 07:42:07;;;;;;;4.70;4.20;;;;;;;33.50;50.30;96481.41;108514;1268;22495;-78
2022/08/23 07:44:36;;;;;;;4.40;4.00;;;;;;;34.23;50.64;96479.06;108513;1268;22707;-79
2022/08/23 07:47:07;;;;;;;4.30;3.90;;;;;;;34.93;45.81;96476.20;108524;1267;22529;-78
2022/08/23 07:49:37;;;;;;;4.50;4.10;;;;;;;33.52;44.05;96482.05;108512;1268;31025;-78
2022/08/23 07:52:06;;;;;;;;;;;;;;;33.70;45.60;96483.17;108562;1266;23065;-78
2022/08/23 07:54:36;;;;;;;5.80;3.60;;;;;;;34.55;43.96;96477.52;108551;1268;22611;-76
2022/08/23 07:57:07;;;;;;;5.10;4.40;;;;;;;35.02;42.77;96478.69;108516;1268;23735;-82
2022/08/23 07:59:36;;;;;;;4.30;4.00;;;;;;;35.46;41.61;96480.77;108452;1268;52915;-82
2022/08/23 08:02:06;;;;;;;5.10;4.50;;;;;;;35.06;41.03;96479.20;108520;1267;22550;-81
2022/08/23 08:04:36;;;;;;;4.40;4.10;;;;;;;34.41;42.70;96479.89;108588;1268;22532;-82
2022/08/23 08:07:05;;;;;;;5.30;3.90;;;;;;;33.59;43.57;96481.97;108558;1268;23832;-79
2022/08/23 08:09:34;;;;;;;7.70;4.50;;;;;;;32.17;44.06;96481.46;108434;1268;45583;-80
2022/08/23 08:12:04;;;;;;;5.40;5.00;;;;;;;30.42;45.48;96483.38;108528;1268;22697;-78
2022/08/23 08:14:33;;;;;;;5.80;4.80;;;;;;;28.47;47.93;96485.80;108527;1268;22542;-79
2022/08/23 08:17:01;;;;;;;7.50;5.20;;;;;;;27.00;51.03;96492.70;108432;1268;22489;-80
2022/08/23 08:19:33;;;;;;;6.20;4.90;;;;;;;25.82;53.69;96502.40;108469;1265;40490;-81
2022/08/23 08:22:02;;;;;;;5.40;4.90;;;;;;;25.02;56.68;96506.30;108527;1267;24243;-82
2022/08/23 08:24:31;;;;;;;6.80;6.10;;;;;;;24.82;58.52;96505.27;108539;1267;23081;-82
2022/08/23 08:27:01;;;;;;;5.90;5.40;;;;;;;24.70;59.82;96509.72;108538;1267;23779;-82
2022/08/23 08:29:31;;;;;;;9.00;5.80;;;;;;;24.45;60.01;96505.65;108538;1268;47002;-82
2022/08/23 08:32:00;;;;;;;8.70;6.50;;;;;;;24.02;61.30;96513.94;108652;1268;25242;-83
2022/08/23 08:34:34;;;;;;;7.20;5.90;;;;;;;23.82;62.05;96515.60;108613;1268;22484;-83
2022/08/23 08:37:05;;;;;;;7.80;6.10;;;;;;;23.40;62.86;96519.39;108542;1268;23716;-82
2022/08/23 08:39:34;;;;;;;7.00;6.30;;;;;;;23.04;64.17;96518.97;108471;1268;32959;-79
2022/08/23 08:42:18;;;;;;;6.80;6.10;;;;;;;23.00;65.93;96517.35;108476;1268;23028;-74
2022/08/23 08:44:53;;;;;;;6.90;6.20;;;;;;;23.10;67.50;96522.61;108543;1267;22707;-74
2022/08/23 08:47:26;;;;;;;7.10;6.40;;;;;;;23.14;67.02;96517.58;108536;1268;22471;-75
2022/08/23 08:50:02;;;;;;;8.70;6.10;;;;;;;22.79;68.16;96522.69;108391;1268;23787;-77
2022/08/23 08:52:35;;;;;;;7.80;6.20;;;;;;;22.72;69.65;96523.04;108530;1268;24756;-76
2022/08/23 08:55:11;;;;;;;7.40;6.10;;;;;;;23.02;70.05;96522.88;108533;1268;22684;-76
2022/08/23 08:57:43;;;;;;;7.50;6.60;;;;;;;23.13;69.19;96520.50;108571;1266;25440;-76
2022/08/23 09:00:18;;;;;;;6.90;6.10;;;;;;;23.09;69.62;96523.69;108505;1267;23365;-76
2022/08/23 09:02:47;;;;;;;9.30;6.50;;;;;;;23.27;70.29;96524.44;108532;1268;23804;-76
2022/08/23 09:05:21;;;;;;;6.60;5.60;;;;;;;23.39;70.76;96530.52;108518;1267;26032;-77
2022/08/23 09:08:05;;;;;;;6.10;5.50;;;;;;;23.46;71.07;96529.52;108447;1268;31131;-77
2022/08/23 09:10:53;;;;;;;6.60;5.80;;;;;;;23.42;70.61;96526.91;108561;1268;24215;-78
2022/08/23 09:13:46;;;;;;;6.10;5.50;;;;;;;23.13;70.88;96527.85;108538;1267;22644;-78
2022/08/23 09:16:29;;;;;;;7.10;6.30;;;;;;;23.02;71.86;96529.52;108360;1267;22563;-77
2022/08/23 09:19:01;;;;;;;6.60;5.90;;;;;;;22.93;71.67;96528.98;108442;1268;52014;-78
2022/08/23 09:21:40;;;;;;;7.20;6.10;;;;;;;22.70;71.89;96535.64;108569;1268;24033;-77
2022/08/23 09:24:08;;;;;;;6.70;6.00;;;;;;;22.46;73.08;96535.50;108406;1268;22555;-77
2022/08/23 09:26:39;;;;;;;7.30;5.90;;;;;;;22.45;73.80;96539.25;108514;1267;26026;-76
2022/08/23 09:29:18;;;;;;;5.50;4.90;;;;;;;22.41;74.17;96537.73;108467;1267;26971;-77
2022/08/23 09:31:51;;;;;;;6.60;5.30;;;;;;;22.31;74.61;96534.98;108554;1267;22660;-77
2022/08/23 09:34:38;;;;;;;7.70;6.10;;;;;;;22.34;74.97;96531.63;108427;1268;22562;-76
2022/08/23 09:37:18;;;;;;;7.00;6.30;;;;;;;22.40;74.93;96531.91;108515;1268;25443;-77
2022/08/23 09:39:48;;;;;;;;;;;;;;;22.58;75.58;96523.36;108471;1267;30459;-77
2022/08/23 09:42:35;;;;;;;7.50;6.00;;;;;;;22.70;75.17;96526.46;108512;1267;23013;-76
2022/08/23 09:45:24;;;;;;;6.20;5.30;;;;;;;22.64;76.04;96529.80;108513;1267;23333;-76
2022/08/23 09:47:52;;;;;;;6.70;5.70;;;;;;;22.91;76.64;96525.45;108388;1267;40588;-75
2022/08/23 09:50:28;;;;;;;6.10;5.60;;;;;;;23.16;75.76;96531.82;108514;1268;23225;-76
2022/08/23 09:53:01;;;;;;;7.20;6.00;;;;;;;23.23;75.44;96528.08;108541;1268;22560;-77
2022/08/23 09:55:35;;;;;;;6.80;6.10;;;;;;;23.44;76.17;96529.27;108441;1267;23323;-76
2022/08/23 09:58:16;;;;;;;6.90;5.80;;;;;;;23.71;75.40;96530.69;108479;1267;28607;-76
2022/08/23 10:01:11;;;;;;;6.30;5.70;;;;;;;23.97;75.43;96527.02;108490;1268;22500;-76
2022/08/23 10:03:43;;;;;;;7.40;5.90;;;;;;;24.13;73.28;96525.38;108496;1267;24068;-76
2022/08/23 10:06:27;;;;;;;6.30;5.40;;;;;;;24.04;72.79;96526.05;108544;1268;22625;-77
2022/08/23 10:09:03;;;;;;;7.50;6.10;;;;;;;24.42;73.42;96530.02;108369;1266;32623;-75
2022/08/23 10:11:38;;;;;;;9.30;6.40;;;;;;;24.44;71.61;96538.70;108539;1268;22563;-77
2022/08/23 10:14:07;;;;;;;6.20;5.60;;;;;;;24.64;72.45;96542.65;108601;1268;22559;-77
2022/08/23 10:16:50;;;;;;;9.50;6.60;;;;;;;24.68;70.24;96539.20;108491;1268;23660;-76
2022/08/23 10:19:28;;;;;;;6.90;5.90;;;;;;;24.51;70.48;96537.62;108504;1268;40914;-77
2022/08/23 10:22:03;;;;;;;6.50;5.80;;;;;;;24.60;70.10;96537.89;108550;1268;24263;-77
2022/08/23 10:24:44;;;;;;;6.90;6.20;;;;;;;24.75;70.51;96538.97;108512;1268;22562;-77
2022/08/23 10:30:18;;;;;;;6.40;5.40;;;;;;;24.55;69.96;96539.22;106823;1267;2282256;-78
2022/08/23 10:33:02;;;;;;;5.60;5.10;;;;;;;24.57;71.25;96540.73;108468;1267;22482;-77
2022/08/23 10:35:46;;;;;;;6.60;5.70;;;;;;;24.81;71.34;96541.59;108509;1267;22809;-76
2022/08/23 10:38:37;;;;;;;6.20;5.60;;;;;;;25.00;71.20;96544.34;108419;1268;30575;-77
2022/08/23 10:41:20;;;;;;;6.70;6.00;;;;;;;25.26;71.68;96543.42;108483;1267;25370;-77
2022/08/23 10:43:59;;;;;;;6.30;5.70;;;;;;;25.51;70.43;96540.52;108531;1268;24040;-77
2022/08/23 10:46:36;;;;;;;6.40;5.80;;;;;;;25.64;70.65;96538.39;108470;1267;22558;-77
2022/08/23 10:49:07;;;;;;;6.00;5.40;;;;;;;25.77;69.58;96538.80;108427;1268;42354;-77
2022/08/23 10:51:41;;;;;;;7.40;5.80;;;;;;;25.76;68.73;96539.48;108544;1267;22645;-77
2022/08/23 10:54:17;;;;;;;5.90;5.30;;;;;;;25.49;67.90;96539.89;108468;1267;22588;-77
2022/08/23 10:56:46;;;;;;;6.50;5.80;;;;;;;25.40;68.95;96546.65;108483;1268;22547;-76
2022/08/23 10:59:19;;;;;;;6.00;5.40;;;;;;;25.42;68.60;96545.58;108464;1267;30735;-77
2022/08/23 11:01:57;;;;;;;7.40;5.70;;;;;;;25.24;68.29;96548.83;108498;1268;22532;-77
2022/08/23 11:04:33;;;;;;;6.10;5.60;;;;;;;24.90;69.43;96552.92;108509;1267;22565;-77
2022/08/23 11:07:16;;;;;;;6.60;5.90;;;;;;;24.85;69.78;96557.52;108565;1267;23386;-77
2022/08/23 11:09:52;;;;;;;6.70;5.90;;;;;;;24.82;70.08;96557.34;108489;1267;40064;-77
2022/08/23 11:12:27;;;;;;;8.70;5.40;;;;;;;25.01;70.97;96551.41;108506;1268;22561;-77
2022/08/23 11:15:26;;;;;;;7.40;6.40;;;;;;;25.32;71.61;96554.26;108498;1267;22646;-78
2022/08/23 11:18:03;;;;;;;7.10;5.20;;;;;;;25.72;71.85;96553.49;108443;1268;34070;-78
2022/08/23 11:21:05;;;;;;;5.80;5.20;;;;;;;26.09;71.91;96553.48;108413;1267;22700;-78
2022/08/23 11:23:49;;;;;;;5.60;5.10;;;;;;;26.24;70.60;96557.29;108533;1268;22544;-77
2022/08/23 11:27:01;;;;;;;8.60;5.80;;;;;;;26.24;69.60;96555.51;108579;1268;22764;-78
2022/08/23 11:29:33;;;;;;;5.90;5.20;;;;;;;26.34;69.07;96552.69;108457;1267;37025;-76
2022/08/23 11:32:26;;;;;;;7.80;5.40;;;;;;;26.41;68.68;96552.27;108537;1267;25260;-76
2022/08/23 11:35:07;;;;;;;5.50;5.00;;;;;;;26.34;68.02;96550.12;108542;1268;24086;-76
2022/08/23 11:37:53;;;;;;;5.80;5.20;;;;;;;26.26;68.48;96543.55;108563;1268;24246;-77
2022/08/23 11:41:06;;;;;;;6.10;5.50;;;;;;;26.10;67.51;96543.95;108538;1267;24221;-77
2022/08/23 11:43:40;;;;;;;7.50;6.30;;;;;;;25.32;66.09;96549.35;108434;1267;25131;-76
2022/08/23 11:46:33;;;;;;;7.90;5.80;;;;;;;24.74;67.04;96549.88;108556;1266;23734;-77
2022/08/23 11:49:36;;;;;;;7.30;6.30;;;;;;;24.31;68.78;96557.59;108492;1268;25271;-77
2022/08/23 11:52:18;;;;;;;6.20;5.60;;;;;;;24.19;70.50;96553.95;108533;1268;25995;-77
2022/08/23 11:55:06;;;;;;;8.40;6.30;;;;;;;24.36;71.11;96555.73;108458;1268;23851;-76
2022/08/23 11:57:51;;;;;;;7.40;6.60;;;;;;;24.40;71.00;96559.66;108506;1268;22601;-76
2022/08/23 12:00:23;;;;;;;9.20;8.30;;;;;;;24.57;71.10;96550.48;108510;1268;22467;-78
2022/08/23 12:03:03;;;;;;;8.70;7.60;;;;;;;24.93;72.84;96554.20;108536;1266;22696;-77